createdAt,value
2022-08-04T00:00:11.790Z,18.97
2022-08-04T00:01:17.821Z,19.45
2022-08-04T00:02:24.190Z,19.46
2022-08-04T00:03:28.140Z,19.51
2022-08-04T00:05:03.263Z,19.58
2022-08-04T00:06:18.113Z,19.30
2022-08-04T00:07:20.909Z,19.55
2022-08-04T00:08:44.287Z,19.56
2022-08-04T00:09:59.911Z,18.99
2022-08-04T00:10:59.862Z,19.20
2022-08-04T00:12:01.430Z,19.45
2022-08-04T00:13:02.398Z,19.49
2022-08-04T00:14:05.190Z,19.49
2022-08-04T00:15:06.026Z,19.47
2022-08-04T00:16:08.514Z,18.73
2022-08-04T00:17:08.513Z,19.30
2022-08-04T00:18:08.878Z,19.11
2022-08-04T00:19:16.892Z,19.00
2022-08-04T00:20:21.685Z,19.05
2022-08-04T00:21:24.600Z,18.93
2022-08-04T00:22:26.724Z,18.88
2022-08-04T00:23:26.881Z,18.88
2022-08-04T00:24:45.245Z,18.67
2022-08-04T00:25:42.273Z,18.82
2022-08-04T00:26:41.222Z,18.77
2022-08-04T00:27:38.775Z,18.44
2022-08-04T00:28:38.171Z,18.75
2022-08-04T00:29:37.902Z,18.69
2022-08-04T00:30:34.714Z,18.69
2022-08-04T00:31:53.566Z,18.69
2022-08-04T00:32:49.698Z,18.56
2022-08-04T00:33:46.819Z,18.52
2022-08-04T00:34:44.734Z,18.39
2022-08-04T00:35:41.983Z,18.97
2022-08-04T00:36:40.717Z,19.15
2022-08-04T00:37:38.777Z,19.18
2022-08-04T00:38:35.931Z,19.17
2022-08-04T00:39:34.502Z,19.15
2022-08-04T00:41:08.371Z,19.19
2022-08-04T00:42:26.575Z,19.25
2022-08-04T00:43:37.390Z,19.02
2022-08-04T00:44:39.782Z,19.18
2022-08-04T00:46:15.503Z,19.21
2022-08-04T00:47:41.777Z,19.23
2022-08-04T00:49:03.106Z,19.13
2022-08-04T00:50:02.474Z,19.15
2022-08-04T00:51:25.948Z,19.23
2022-08-04T00:52:36.653Z,19.25
2022-08-04T00:53:49.525Z,19.29
2022-08-04T00:54:58.711Z,19.23
2022-08-04T00:55:55.378Z,19.24
2022-08-04T00:57:21.569Z,19.12
2022-08-04T00:58:39.405Z,19.35
2022-08-04T01:00:07.720Z,19.32
2022-08-04T01:01:08.758Z,19.24
2022-08-04T01:02:25.660Z,19.31
2022-08-04T01:03:41.793Z,19.25
2022-08-04T01:04:46.921Z,19.15
2022-08-04T01:06:02.359Z,19.04
2022-08-04T01:07:29.462Z,19.14
2022-08-04T01:09:00.904Z,19.21
2022-08-04T01:10:37.972Z,18.80
2022-08-04T01:11:56.931Z,19.20
2022-08-04T01:13:19.803Z,19.17
2022-08-04T01:14:39.424Z,18.94
2022-08-04T01:16:00.362Z,18.98
2022-08-04T01:17:18.967Z,19.20
2022-08-04T01:18:41.938Z,19.11
2022-08-04T01:20:02.459Z,19.19
2022-08-04T01:21:23.394Z,18.91
2022-08-04T01:22:32.424Z,19.17
2022-08-04T01:23:56.581Z,19.14
2022-08-04T01:25:30.462Z,19.16
2022-08-04T01:26:57.218Z,19.27
2022-08-04T01:28:01.230Z,19.23
2022-08-04T01:29:09.898Z,18.73
2022-08-04T01:30:06.797Z,19.05
2022-08-04T01:31:34.923Z,18.40
2022-08-04T01:33:02.144Z,18.56
2022-08-04T01:34:04.946Z,18.15
2022-08-04T01:35:09.426Z,18.82
2022-08-04T01:36:13.125Z,18.89
2022-08-04T01:37:42.034Z,18.73
2022-08-04T01:38:44.147Z,18.52
2022-08-04T01:39:57.302Z,18.59
2022-08-04T01:40:59.357Z,18.01
2022-08-04T01:41:58.726Z,18.64
2022-08-04T01:42:55.827Z,18.55
2022-08-04T01:43:56.137Z,18.22
2022-08-04T01:44:55.463Z,18.45
2022-08-04T01:45:59.574Z,18.54
2022-08-04T01:46:57.736Z,17.33
2022-08-04T01:47:56.618Z,18.75
2022-08-04T01:48:54.721Z,18.73
2022-08-04T01:49:59.830Z,18.32
2022-08-04T01:51:04.766Z,18.46
2022-08-04T01:52:03.110Z,18.33
2022-08-04T01:53:02.359Z,18.63
2022-08-04T01:53:59.106Z,18.53
2022-08-04T01:54:57.362Z,18.48
2022-08-04T01:55:57.571Z,18.41
2022-08-04T01:56:56.414Z,17.80
2022-08-04T01:57:53.530Z,18.40
2022-08-04T01:58:50.249Z,17.74
2022-08-04T01:59:48.813Z,18.57
2022-08-04T02:01:06.617Z,18.60
2022-08-04T02:02:06.367Z,18.50
2022-08-04T02:03:03.267Z,18.53
2022-08-04T02:04:20.972Z,18.62
2022-08-04T02:05:20.193Z,18.56
2022-08-04T02:06:49.443Z,18.95
2022-08-04T02:08:04.632Z,19.05
2022-08-04T02:09:30.326Z,19.10
2022-08-04T02:10:41.857Z,18.91
2022-08-04T02:11:43.679Z,19.03
2022-08-04T02:12:56.111Z,19.01
2022-08-04T02:14:37.582Z,18.85
2022-08-04T02:15:52.909Z,18.73
2022-08-04T02:16:53.076Z,18.72
2022-08-04T02:18:03.761Z,17.83
2022-08-04T02:19:09.126Z,18.93
2022-08-04T02:20:39.282Z,18.77
2022-08-04T02:21:42.068Z,18.68
2022-08-04T02:22:56.236Z,18.74
2022-08-04T02:24:06.958Z,18.66
2022-08-04T02:25:08.863Z,18.40
2022-08-04T02:26:20.000Z,18.27
2022-08-04T02:27:29.571Z,18.18
2022-08-04T02:29:32.106Z,18.55
2022-08-04T02:30:40.415Z,18.62
2022-08-04T02:31:49.764Z,18.85
2022-08-04T02:32:48.900Z,18.86
2022-08-04T02:34:10.575Z,18.33
2022-08-04T02:35:13.981Z,18.70
2022-08-04T02:36:17.578Z,18.60
2022-08-04T02:37:17.866Z,18.59
2022-08-04T02:38:34.789Z,18.58
2022-08-04T02:39:47.822Z,18.56
2022-08-04T02:40:47.143Z,18.32
2022-08-04T02:41:46.326Z,18.37
2022-08-04T02:42:46.042Z,18.09
2022-08-04T02:43:51.619Z,18.05
2022-08-04T02:44:51.360Z,18.33
2022-08-04T02:45:51.672Z,18.51
2022-08-04T02:46:52.210Z,17.85
2022-08-04T02:48:29.280Z,18.65
2022-08-04T02:49:11.122Z,18.49
2022-08-04T02:50:11.956Z,18.22
2022-08-04T02:51:13.101Z,18.49
2022-08-04T02:52:12.642Z,18.30
2022-08-04T02:53:15.416Z,18.27
2022-08-04T02:54:15.831Z,18.30
2022-08-04T02:55:29.901Z,18.27
2022-08-04T02:56:30.583Z,18.15
2022-08-04T02:57:31.757Z,18.29
2022-08-04T02:58:35.361Z,18.49
2022-08-04T03:00:02.493Z,17.78
2022-08-04T03:00:59.377Z,17.69
2022-08-04T03:01:58.450Z,17.84
2022-08-04T03:03:16.856Z,18.13
2022-08-04T03:04:25.475Z,17.91
2022-08-04T03:05:28.957Z,17.55
2022-08-04T03:07:05.920Z,17.85
2022-08-04T03:08:23.962Z,17.92
2022-08-04T03:09:48.276Z,17.90
2022-08-04T03:11:11.185Z,17.73
2022-08-04T03:12:26.617Z,17.61
2022-08-04T03:14:09.648Z,17.68
2022-08-04T03:15:34.466Z,17.84
2022-08-04T03:16:40.410Z,17.90
2022-08-04T03:17:37.111Z,17.70
2022-08-04T03:19:27.355Z,17.37
2022-08-04T03:20:56.454Z,17.46
2022-08-04T03:22:30.127Z,17.17
2022-08-04T03:23:38.647Z,17.12
2022-08-04T03:24:56.903Z,17.03
2022-08-04T03:26:08.579Z,17.03
2022-08-04T03:27:26.903Z,17.03
2022-08-04T03:28:48.370Z,17.02
2022-08-04T03:29:57.086Z,17.03
2022-08-04T03:31:18.568Z,16.86
2022-08-04T03:32:37.223Z,16.94
2022-08-04T03:33:36.541Z,17.02
2022-08-04T03:34:39.254Z,17.03
2022-08-04T03:35:57.650Z,17.05
2022-08-04T03:37:21.662Z,16.93
2022-08-04T03:38:57.081Z,16.95
2022-08-04T03:40:18.721Z,17.17
2022-08-04T03:41:51.774Z,17.23
2022-08-04T03:43:57.786Z,16.45
2022-08-04T03:44:51.151Z,17.21
2022-08-04T03:46:06.025Z,17.37
2022-08-04T03:47:35.007Z,17.50
2022-08-04T03:49:18.414Z,17.47
2022-08-04T03:50:25.892Z,17.55
2022-08-04T03:52:19.653Z,17.52
2022-08-04T03:53:52.921Z,17.75
2022-08-04T03:55:19.214Z,17.86
2022-08-04T03:56:33.694Z,17.82
2022-08-04T03:57:47.794Z,17.88
2022-08-04T03:59:03.040Z,17.75
2022-08-04T04:00:04.342Z,17.68
2022-08-04T04:01:03.987Z,17.73
2022-08-04T04:02:20.454Z,17.78
2022-08-04T04:03:29.395Z,17.77
2022-08-04T04:04:58.371Z,17.93
2022-08-04T04:06:32.395Z,17.92
2022-08-04T04:07:41.122Z,17.94
2022-08-04T04:09:06.025Z,17.93
2022-08-04T04:10:43.483Z,18.23
2022-08-04T04:12:17.711Z,18.19
2022-08-04T04:13:34.290Z,18.41
2022-08-04T04:15:14.813Z,18.61
2022-08-04T04:16:27.440Z,18.51
2022-08-04T04:17:56.342Z,18.34
2022-08-04T04:19:07.774Z,18.24
2022-08-04T04:20:48.114Z,18.39
2022-08-04T04:22:03.462Z,18.48
2022-08-04T04:23:11.005Z,18.63
2022-08-04T04:24:16.811Z,18.54
2022-08-04T04:25:41.025Z,18.38
2022-08-04T04:26:59.303Z,18.40
2022-08-04T04:28:45.023Z,18.37
2022-08-04T04:30:33.152Z,18.23
2022-08-04T04:31:53.663Z,18.31
2022-08-04T04:32:50.361Z,18.47
2022-08-04T04:34:16.799Z,18.50
2022-08-04T04:35:16.482Z,18.53
2022-08-04T04:36:24.303Z,18.48
2022-08-04T04:37:54.987Z,18.51
2022-08-04T04:39:03.965Z,18.62
2022-08-04T04:40:18.001Z,18.63
2022-08-04T04:41:38.774Z,18.75
2022-08-04T04:42:44.706Z,18.76
2022-08-04T04:43:53.335Z,18.90
2022-08-04T04:44:55.810Z,19.14
2022-08-04T04:45:59.894Z,19.05
2022-08-04T04:46:56.643Z,18.95
2022-08-04T04:48:08.569Z,18.87
2022-08-04T04:49:35.008Z,18.68
2022-08-04T04:50:58.534Z,18.38
2022-08-04T04:52:13.287Z,18.46
2022-08-04T04:53:38.523Z,18.30
2022-08-04T04:54:45.728Z,18.65
2022-08-04T04:56:08.443Z,18.64
2022-08-04T04:57:11.946Z,18.60
2022-08-04T04:58:15.479Z,18.06
2022-08-04T04:59:17.045Z,18.43
2022-08-04T05:00:15.183Z,18.66
2022-08-04T05:01:52.101Z,18.54
2022-08-04T05:03:26.336Z,18.44
2022-08-04T05:04:35.000Z,18.64
2022-08-04T05:05:43.351Z,18.67
2022-08-04T05:06:42.862Z,18.62
2022-08-04T05:08:45.448Z,18.66
2022-08-04T05:09:50.852Z,18.98
2022-08-04T05:10:56.505Z,18.94
2022-08-04T05:11:59.004Z,18.92
2022-08-04T05:14:35.738Z,18.49
2022-08-04T05:14:37.035Z,18.95
2022-08-04T05:15:43.399Z,19.00
2022-08-04T05:16:54.520Z,18.74
2022-08-04T05:17:54.188Z,19.13
2022-08-04T05:19:29.800Z,19.42
2022-08-04T05:20:35.647Z,19.44
2022-08-04T05:21:42.208Z,19.37
2022-08-04T05:23:00.590Z,19.16
2022-08-04T05:24:04.016Z,18.77
2022-08-04T05:25:16.182Z,18.82
2022-08-04T05:26:18.350Z,19.12
2022-08-04T05:27:28.563Z,19.20
2022-08-04T05:28:33.196Z,19.27
2022-08-04T05:29:43.113Z,19.37
2022-08-04T05:30:48.665Z,19.09
2022-08-04T05:31:52.357Z,19.24
2022-08-04T05:33:04.699Z,19.09
2022-08-04T05:34:11.461Z,19.04
2022-08-04T05:35:14.314Z,19.00
2022-08-04T05:36:41.804Z,19.37
2022-08-04T05:37:42.443Z,19.52
2022-08-04T05:38:42.455Z,19.40
2022-08-04T05:39:47.348Z,19.45
2022-08-04T05:40:45.884Z,19.31
2022-08-04T05:41:47.879Z,19.27
2022-08-04T05:42:56.283Z,19.36
2022-08-04T05:43:54.654Z,17.64
2022-08-04T05:44:52.441Z,19.51
2022-08-04T05:45:52.547Z,19.68
2022-08-04T05:46:53.638Z,19.67
2022-08-04T05:47:54.002Z,19.54
2022-08-04T05:48:52.242Z,19.80
2022-08-04T05:50:01.512Z,20.36
2022-08-04T05:51:01.667Z,19.89
2022-08-04T05:52:04.742Z,20.64
2022-08-04T05:53:02.941Z,20.63
2022-08-04T05:54:02.913Z,20.73
2022-08-04T05:55:01.729Z,20.60
2022-08-04T05:56:01.843Z,20.72
2022-08-04T05:57:00.097Z,20.79
2022-08-04T05:58:00.628Z,20.09
2022-08-04T05:58:59.878Z,20.58
2022-08-04T06:00:10.353Z,20.74
2022-08-04T06:01:19.059Z,20.45
2022-08-04T06:02:19.290Z,20.39
2022-08-04T06:03:21.375Z,19.83
2022-08-04T06:04:21.552Z,20.84
2022-08-04T06:05:19.362Z,21.10
2022-08-04T06:06:19.505Z,20.88
2022-08-04T06:07:16.776Z,20.95
2022-08-04T06:08:14.135Z,20.63
2022-08-04T06:09:12.035Z,20.74
2022-08-04T06:10:09.265Z,20.99
2022-08-04T06:11:09.649Z,21.30
2022-08-04T06:12:23.432Z,21.38
2022-08-04T06:13:47.930Z,21.57
2022-08-04T06:14:52.995Z,21.12
2022-08-04T06:15:52.818Z,21.21
2022-08-04T06:16:52.461Z,21.23
2022-08-04T06:19:57.460Z,21.10
2022-08-04T06:20:03.258Z,21.07
2022-08-04T06:20:50.240Z,20.93
2022-08-04T06:21:49.947Z,21.23
2022-08-04T06:22:52.130Z,21.03
2022-08-04T06:23:53.653Z,21.03
2022-08-04T06:25:00.785Z,21.11
2022-08-04T06:26:00.216Z,21.22
2022-08-04T06:26:57.737Z,21.14
2022-08-04T06:27:56.484Z,21.12
2022-08-04T06:28:57.092Z,21.41
2022-08-04T06:29:57.536Z,21.18
2022-08-04T06:30:55.803Z,21.35
2022-08-04T06:32:27.055Z,21.45
2022-08-04T06:33:26.539Z,21.51
2022-08-04T06:34:25.582Z,21.39
2022-08-04T06:35:24.886Z,21.23
2022-08-04T06:36:22.059Z,20.83
2022-08-04T06:37:40.944Z,20.58
2022-08-04T06:38:41.765Z,21.04
2022-08-04T06:39:39.239Z,21.26
2022-08-04T06:40:36.572Z,21.59
2022-08-04T06:41:35.366Z,21.57
2022-08-04T06:42:53.690Z,21.25
2022-08-04T06:43:53.542Z,20.93
2022-08-04T06:44:55.516Z,21.32
2022-08-04T06:45:54.489Z,21.55
2022-08-04T06:46:53.163Z,21.73
2022-08-04T06:47:50.293Z,22.08
2022-08-04T06:48:49.879Z,22.09
2022-08-04T06:51:27.923Z,22.39
2022-08-04T06:51:29.301Z,21.83
2022-08-04T06:52:28.083Z,21.35
2022-08-04T06:53:26.573Z,22.16
2022-08-04T06:54:23.354Z,22.56
2022-08-04T06:55:20.198Z,22.52
2022-08-04T06:56:19.206Z,22.21
2022-08-04T06:57:20.888Z,21.63
2022-08-04T06:58:21.799Z,22.27
2022-08-04T06:59:22.305Z,22.49
2022-08-04T07:00:19.256Z,22.40
2022-08-04T07:01:19.657Z,22.52
2022-08-04T07:02:31.505Z,22.45
2022-08-04T07:03:30.852Z,22.50
2022-08-04T07:04:28.742Z,22.32
2022-08-04T07:05:26.690Z,22.29
2022-08-04T07:06:25.573Z,22.53
2022-08-04T07:07:36.730Z,22.94
2022-08-04T07:08:36.334Z,23.04
2022-08-04T07:09:33.398Z,22.51
2022-08-04T07:10:31.610Z,23.46
2022-08-04T07:11:29.114Z,23.65
2022-08-04T07:12:42.080Z,23.72
2022-08-04T07:13:44.700Z,23.54
2022-08-04T07:14:43.888Z,23.67
2022-08-04T07:15:45.878Z,23.33
2022-08-04T07:16:43.624Z,23.49
2022-08-04T07:17:42.309Z,23.71
2022-08-04T07:18:39.256Z,23.88
2022-08-04T07:19:36.902Z,23.73
2022-08-04T07:20:36.813Z,23.97
2022-08-04T07:21:35.788Z,23.49
2022-08-04T07:22:33.326Z,22.89
2022-08-04T07:23:31.502Z,24.15
2022-08-04T07:24:47.084Z,23.99
2022-08-04T07:26:11.773Z,23.82
2022-08-04T07:27:10.061Z,23.85
2022-08-04T07:28:07.184Z,23.59
2022-08-04T07:29:04.357Z,23.85
2022-08-04T07:30:02.646Z,23.46
2022-08-04T07:31:02.586Z,23.93
2022-08-04T07:32:01.457Z,24.04
2022-08-04T07:32:59.138Z,24.05
2022-08-04T07:34:20.483Z,23.46
2022-08-04T07:36:05.199Z,24.26
2022-08-04T07:36:38.373Z,23.76
2022-08-04T07:37:46.975Z,23.27
2022-08-04T07:38:46.957Z,23.29
2022-08-04T07:39:48.804Z,23.77
2022-08-04T07:40:46.911Z,23.56
2022-08-04T07:41:48.883Z,23.72
2022-08-04T07:42:46.592Z,23.91
2022-08-04T07:43:43.621Z,23.99
2022-08-04T07:44:40.878Z,23.74
2022-08-04T07:45:39.755Z,23.46
2022-08-04T07:46:37.620Z,23.60
2022-08-04T07:47:34.854Z,23.64
2022-08-04T07:48:31.778Z,23.46
2022-08-04T07:49:57.340Z,23.52
2022-08-04T07:50:47.293Z,23.49
2022-08-04T07:51:44.572Z,23.42
2022-08-04T07:52:41.846Z,24.07
2022-08-04T07:53:54.678Z,24.02
2022-08-04T07:54:53.994Z,23.73
2022-08-04T07:55:51.502Z,23.97
2022-08-04T07:56:49.424Z,24.43
2022-08-04T07:57:46.633Z,24.05
2022-08-04T07:58:43.805Z,24.37
2022-08-04T07:59:41.973Z,24.75
2022-08-04T08:00:39.699Z,24.82
2022-08-04T08:01:37.700Z,24.82
2022-08-04T08:02:36.606Z,24.69
2022-08-04T08:03:34.877Z,24.39
2022-08-04T08:04:33.433Z,24.11
2022-08-04T08:05:30.441Z,24.73
2022-08-04T08:06:32.047Z,24.39
2022-08-04T08:07:31.089Z,24.54
2022-08-04T08:08:27.921Z,24.66
2022-08-04T08:09:24.821Z,24.53
2022-08-04T08:10:22.195Z,24.60
2022-08-04T08:11:19.381Z,24.72
2022-08-04T08:12:36.926Z,24.26
2022-08-04T08:13:36.484Z,24.88
2022-08-04T08:14:35.052Z,24.68
2022-08-04T08:15:31.870Z,24.60
2022-08-04T08:16:29.039Z,24.37
2022-08-04T08:17:25.838Z,25.09
2022-08-04T08:18:22.567Z,24.93
2022-08-04T08:19:19.435Z,24.98
2022-08-04T08:20:29.611Z,24.68
2022-08-04T08:21:27.181Z,25.29
2022-08-04T08:22:23.942Z,24.65
2022-08-04T08:23:21.793Z,25.37
2022-08-04T08:24:19.669Z,24.63
2022-08-04T08:25:16.578Z,25.57
2022-08-04T08:26:13.371Z,25.49
2022-08-04T08:27:10.307Z,25.53
2022-08-04T08:28:07.619Z,25.54
2022-08-04T08:29:04.563Z,25.63
2022-08-04T08:30:01.276Z,25.91
2022-08-04T08:30:59.458Z,26.58
2022-08-04T08:32:01.644Z,26.93
2022-08-04T08:33:06.626Z,26.86
2022-08-04T08:34:04.084Z,26.88
2022-08-04T08:35:01.961Z,26.44
2022-08-04T08:36:09.897Z,26.68
2022-08-04T08:37:17.046Z,26.60
2022-08-04T08:38:18.156Z,26.45
2022-08-04T08:39:24.718Z,26.49
2022-08-04T08:40:50.911Z,26.40
2022-08-04T08:42:14.502Z,25.69
2022-08-04T08:44:05.904Z,26.60
2022-08-04T08:44:37.971Z,26.29
2022-08-04T08:45:49.967Z,26.10
2022-08-04T08:46:58.477Z,25.76
2022-08-04T08:48:13.485Z,25.90
2022-08-04T08:50:00.307Z,25.95
2022-08-04T08:51:18.214Z,25.89
2022-08-04T08:53:00.839Z,25.91
2022-08-04T08:54:36.616Z,25.54
2022-08-04T08:56:10.329Z,26.19
2022-08-04T08:57:34.972Z,26.25
2022-08-04T08:59:05.545Z,26.37
2022-08-04T09:00:21.802Z,25.84
2022-08-04T09:01:50.656Z,26.13
2022-08-04T09:03:21.008Z,26.48
2022-08-04T09:04:48.003Z,26.09
2022-08-04T09:06:17.210Z,26.71
2022-08-04T09:07:27.957Z,26.07
2022-08-04T09:09:01.961Z,26.86
2022-08-04T09:10:01.688Z,26.94
2022-08-04T09:11:08.926Z,26.84
2022-08-04T09:12:29.320Z,26.92
2022-08-04T09:13:46.334Z,27.07
2022-08-04T09:14:54.378Z,27.10
2022-08-04T09:16:01.570Z,27.03
2022-08-04T09:17:06.631Z,26.44
2022-08-04T09:18:18.280Z,26.07
2022-08-04T09:19:24.691Z,26.54
2022-08-04T09:20:47.681Z,26.67
2022-08-04T09:22:02.524Z,26.52
2022-08-04T09:23:23.664Z,26.63
2022-08-04T09:24:37.148Z,26.97
2022-08-04T09:25:54.468Z,27.00
2022-08-04T09:27:03.609Z,26.93
2022-08-04T09:28:09.136Z,26.98
2022-08-04T09:29:33.861Z,27.34
2022-08-04T09:30:55.958Z,27.49
2022-08-04T09:32:06.900Z,27.52
2022-08-04T09:33:44.332Z,27.23
2022-08-04T09:35:03.701Z,27.30
2022-08-04T09:36:05.361Z,27.40
2022-08-04T09:37:20.362Z,27.26
2022-08-04T09:38:40.125Z,27.55
2022-08-04T09:39:54.916Z,27.51
2022-08-04T09:41:19.792Z,27.29
2022-08-04T09:42:48.334Z,27.31
2022-08-04T09:44:50.585Z,27.40
2022-08-04T09:45:58.711Z,27.60
2022-08-04T09:47:10.621Z,27.82
2022-08-04T09:48:25.028Z,27.48
2022-08-04T09:49:32.030Z,27.26
2022-08-04T09:50:36.583Z,27.67
2022-08-04T09:51:57.832Z,27.63
2022-08-04T09:53:42.394Z,27.83
2022-08-04T09:55:03.998Z,28.22
2022-08-04T09:56:14.257Z,27.98
2022-08-04T09:57:47.698Z,27.06
2022-08-04T09:58:56.911Z,27.97
2022-08-04T10:00:10.802Z,28.11
2022-08-04T10:01:21.183Z,28.18
2022-08-04T10:02:24.469Z,28.41
2022-08-04T10:03:27.476Z,27.85
2022-08-04T10:04:29.445Z,27.88
2022-08-04T10:05:42.347Z,28.54
2022-08-04T10:07:00.775Z,28.40
2022-08-04T10:08:17.079Z,28.74
2022-08-04T10:09:48.682Z,28.43
2022-08-04T10:10:51.878Z,28.72
2022-08-04T10:11:57.696Z,28.79
2022-08-04T10:13:20.626Z,28.80
2022-08-04T10:14:40.361Z,28.42
2022-08-04T10:15:53.340Z,29.34
2022-08-04T10:16:58.529Z,29.38
2022-08-04T10:18:10.830Z,29.35
2022-08-04T10:19:28.860Z,29.09
2022-08-04T10:20:54.261Z,29.51
2022-08-04T10:22:28.552Z,29.18
2022-08-04T10:23:56.432Z,29.24
2022-08-04T10:25:05.814Z,29.38
2022-08-04T10:26:45.786Z,29.35
2022-08-04T10:27:51.228Z,29.61
2022-08-04T10:28:56.712Z,29.55
2022-08-04T10:30:11.999Z,29.37
2022-08-04T10:31:13.503Z,29.12
2022-08-04T10:32:35.686Z,28.80
2022-08-04T10:33:58.253Z,29.15
2022-08-04T10:35:00.937Z,29.31
2022-08-04T10:36:04.728Z,29.54
2022-08-04T10:37:19.143Z,29.42
2022-08-04T10:38:40.571Z,29.54
2022-08-04T10:40:09.645Z,29.28
2022-08-04T10:41:09.321Z,29.51
2022-08-04T10:42:25.384Z,29.45
2022-08-04T10:43:40.767Z,29.68
2022-08-04T10:45:06.090Z,29.84
2022-08-04T10:46:10.829Z,29.50
2022-08-04T10:47:19.994Z,29.11
2022-08-04T10:48:40.989Z,29.22
2022-08-04T10:49:46.348Z,29.63
2022-08-04T10:50:59.730Z,29.40
2022-08-04T10:52:11.222Z,29.26
2022-08-04T10:53:14.036Z,29.03
2022-08-04T10:54:17.401Z,29.44
2022-08-04T10:55:23.343Z,29.17
2022-08-04T10:57:01.371Z,28.95
2022-08-04T10:58:04.508Z,29.13
2022-08-04T10:59:17.937Z,29.06
2022-08-04T11:00:21.863Z,29.08
2022-08-04T11:02:00.660Z,29.17
2022-08-04T11:03:26.683Z,29.18
2022-08-04T11:04:43.908Z,29.31
2022-08-04T11:05:54.297Z,29.37
2022-08-04T11:06:53.132Z,29.44
2022-08-04T11:07:53.878Z,29.44
2022-08-04T11:08:55.600Z,29.27
2022-08-04T11:09:53.167Z,29.26
2022-08-04T11:11:07.889Z,29.19
2022-08-04T11:12:16.559Z,29.15
2022-08-04T11:13:22.127Z,29.35
2022-08-04T11:14:59.536Z,29.49
2022-08-04T11:16:02.549Z,28.98
2022-08-04T11:16:59.208Z,29.54
2022-08-04T11:18:06.794Z,29.58
2022-08-04T11:19:42.725Z,29.65
2022-08-04T11:21:16.706Z,29.52
2022-08-04T11:22:26.965Z,29.55
2022-08-04T11:23:34.720Z,29.38
2022-08-04T11:24:53.786Z,29.37
2022-08-04T11:25:58.898Z,29.29
2022-08-04T11:27:03.811Z,29.03
2022-08-04T11:28:14.215Z,29.04
2022-08-04T11:31:03.958Z,29.57
2022-08-04T11:32:05.900Z,29.38
2022-08-04T11:33:33.562Z,29.30
2022-08-04T11:34:35.846Z,29.54
2022-08-04T11:35:52.516Z,29.47
2022-08-04T11:37:17.416Z,29.60
2022-08-04T11:38:42.395Z,29.47
2022-08-04T11:40:04.094Z,29.28
2022-08-04T11:41:10.946Z,30.04
2022-08-04T11:42:10.352Z,30.21
2022-08-04T11:44:00.911Z,29.76
2022-08-04T11:44:50.715Z,30.17
2022-08-04T11:46:09.897Z,30.36
2022-08-04T11:47:39.751Z,30.29
2022-08-04T11:48:45.110Z,30.14
2022-08-04T11:49:56.914Z,30.28
2022-08-04T11:50:56.736Z,29.62
2022-08-04T11:51:57.092Z,30.11
2022-08-04T11:52:57.583Z,30.01
2022-08-04T11:53:56.033Z,29.53
2022-08-04T11:54:55.716Z,29.71
2022-08-04T11:56:08.792Z,29.72
2022-08-04T11:57:06.906Z,30.00
2022-08-04T11:58:03.787Z,29.29
2022-08-04T11:59:03.132Z,30.06
2022-08-04T12:00:07.223Z,30.05
2022-08-04T12:01:34.827Z,30.03
2022-08-04T12:02:59.610Z,29.62
2022-08-04T12:04:13.826Z,29.73
2022-08-04T12:05:33.598Z,29.70
2022-08-04T12:06:54.028Z,29.80
2022-08-04T12:08:36.039Z,29.69
2022-08-04T12:09:48.017Z,28.94
2022-08-04T12:11:12.873Z,29.10
2022-08-04T12:12:34.999Z,29.57
2022-08-04T12:13:44.799Z,29.24
2022-08-04T12:14:53.335Z,29.13
2022-08-04T12:15:58.816Z,29.32
2022-08-04T12:17:01.887Z,29.42
2022-08-04T12:18:04.230Z,29.48
2022-08-04T12:19:17.077Z,29.34
2022-08-04T12:20:31.573Z,29.24
2022-08-04T12:21:50.360Z,29.27
2022-08-04T12:22:53.276Z,29.37
2022-08-04T12:24:00.527Z,29.47
2022-08-04T12:25:13.769Z,29.33
2022-08-04T12:26:19.467Z,29.35
2022-08-04T12:27:26.042Z,29.09
2022-08-04T12:29:09.662Z,29.16
2022-08-04T12:30:59.876Z,29.16
2022-08-04T12:31:46.987Z,29.16
2022-08-04T12:32:55.333Z,29.17
2022-08-04T12:34:04.403Z,29.35
2022-08-04T12:35:19.395Z,28.51
2022-08-04T12:36:29.456Z,29.34
2022-08-04T12:37:42.499Z,29.38
2022-08-04T12:38:48.634Z,29.33
2022-08-04T12:40:27.561Z,29.47
2022-08-04T12:41:11.706Z,29.52
2022-08-04T12:42:36.458Z,29.68
2022-08-04T12:43:43.866Z,28.76
2022-08-04T12:44:42.982Z,28.94
2022-08-04T12:45:49.077Z,29.61
2022-08-04T12:46:47.468Z,29.54
2022-08-04T12:47:47.512Z,29.12
2022-08-04T12:48:47.118Z,29.41
2022-08-04T12:50:00.172Z,28.79
2022-08-04T12:50:59.562Z,29.33
2022-08-04T12:52:07.540Z,29.37
2022-08-04T12:53:31.351Z,29.22
2022-08-04T12:54:32.206Z,28.76
2022-08-04T12:55:33.599Z,29.54
2022-08-04T12:56:32.600Z,28.68
2022-08-04T12:57:34.383Z,28.69
2022-08-04T12:58:43.236Z,29.28
2022-08-04T12:59:43.939Z,29.37
2022-08-04T13:00:42.432Z,29.20
2022-08-04T13:02:08.869Z,29.30
2022-08-04T13:03:11.915Z,29.44
2022-08-04T13:04:21.952Z,29.39
2022-08-04T13:05:30.106Z,29.29
2022-08-04T13:06:36.138Z,29.41
2022-08-04T13:07:51.748Z,29.24
2022-08-04T13:08:49.024Z,28.74
2022-08-04T13:09:47.267Z,29.36
2022-08-04T13:10:50.814Z,28.57
2022-08-04T13:11:52.929Z,29.17
2022-08-04T13:13:00.793Z,29.10
2022-08-04T13:14:17.623Z,28.75
2022-08-04T13:15:21.153Z,29.38
2022-08-04T13:16:17.951Z,28.70
2022-08-04T13:17:14.990Z,29.20
2022-08-04T13:18:15.213Z,28.09
2022-08-04T13:19:12.938Z,28.64
2022-08-04T13:20:09.962Z,28.68
2022-08-04T13:21:20.366Z,29.13
2022-08-04T13:22:27.178Z,28.42
2022-08-04T13:23:27.605Z,29.18
2022-08-04T13:26:43.704Z,28.51
2022-08-04T13:27:25.035Z,27.56
2022-08-04T13:28:26.249Z,29.09
2022-08-04T13:29:59.902Z,28.80
2022-08-04T13:30:25.238Z,28.51
2022-08-04T13:31:05.533Z,28.92
2022-08-04T13:32:04.519Z,29.21
2022-08-04T13:33:06.844Z,28.96
2022-08-04T13:34:18.802Z,29.12
2022-08-04T13:35:16.394Z,29.33
2022-08-04T13:36:16.134Z,29.34
2022-08-04T13:37:20.949Z,29.39
2022-08-04T13:38:20.476Z,29.33
2022-08-04T13:39:21.826Z,29.40
2022-08-04T13:40:23.459Z,29.38
2022-08-04T13:41:22.617Z,29.03
2022-08-04T13:42:21.055Z,29.20
2022-08-04T13:44:16.761Z,29.38
2022-08-04T13:44:56.089Z,29.29
2022-08-04T13:46:01.958Z,29.33
2022-08-04T13:47:05.026Z,29.40
2022-08-04T13:48:31.889Z,29.43
2022-08-04T13:49:37.723Z,28.94
2022-08-04T13:50:44.751Z,29.23
2022-08-04T13:51:58.299Z,28.86
2022-08-04T13:53:02.104Z,29.43
2022-08-04T13:54:00.781Z,29.15
2022-08-04T13:54:57.945Z,29.35
2022-08-04T13:56:00.564Z,29.35
2022-08-04T13:57:02.530Z,29.32
2022-08-04T13:58:24.371Z,29.29
2022-08-04T13:59:27.751Z,28.65
2022-08-04T14:00:36.781Z,29.43
2022-08-04T14:01:36.707Z,29.26
2022-08-04T14:02:43.937Z,29.35
2022-08-04T14:03:54.056Z,29.16
2022-08-04T14:04:57.314Z,29.38
2022-08-04T14:06:18.040Z,29.19
2022-08-04T14:07:21.208Z,28.97
2022-08-04T14:08:29.156Z,29.13
2022-08-04T14:09:35.486Z,29.41
2022-08-04T14:10:34.529Z,29.34
2022-08-04T14:12:08.809Z,29.41
2022-08-04T14:12:57.354Z,28.64
2022-08-04T14:13:54.230Z,29.30
2022-08-04T14:14:53.906Z,29.25
2022-08-04T14:16:01.976Z,29.23
2022-08-04T14:17:00.718Z,29.34
2022-08-04T14:18:17.691Z,28.68
2022-08-04T14:19:14.501Z,28.84
2022-08-04T14:20:11.286Z,29.19
2022-08-04T14:21:11.357Z,29.32
2022-08-04T14:22:08.159Z,29.34
2022-08-04T14:23:10.802Z,29.36
2022-08-04T14:24:07.600Z,29.33
2022-08-04T14:25:06.609Z,28.94
2022-08-04T14:26:32.891Z,28.95
2022-08-04T14:27:43.940Z,29.15
2022-08-04T14:29:08.731Z,29.08
2022-08-04T14:29:58.195Z,28.92
2022-08-04T14:31:14.099Z,29.14
2022-08-04T14:32:14.656Z,29.15
2022-08-04T14:34:01.171Z,28.54
2022-08-04T14:34:30.531Z,29.21
2022-08-04T14:35:49.154Z,29.37
2022-08-04T14:36:49.716Z,29.20
2022-08-04T14:38:09.002Z,29.29
2022-08-04T14:39:07.217Z,29.19
2022-08-04T14:40:17.952Z,29.18
2022-08-04T14:41:19.509Z,29.24
2022-08-04T14:42:16.451Z,28.44
2022-08-04T14:43:17.836Z,29.05
2022-08-04T14:44:14.930Z,29.27
2022-08-04T14:45:12.208Z,28.95
2022-08-04T14:46:10.948Z,29.18
2022-08-04T14:47:13.270Z,29.23
2022-08-04T14:48:14.761Z,29.21
2022-08-04T14:49:13.319Z,28.62
2022-08-04T14:50:12.734Z,29.30
2022-08-04T14:51:15.557Z,29.28
2022-08-04T14:52:25.301Z,28.98
2022-08-04T14:53:29.609Z,29.16
2022-08-04T14:54:32.851Z,28.36
2022-08-04T14:55:30.550Z,28.83
2022-08-04T14:56:45.251Z,28.95